sensor_id;sensor_type;location;lat;lon;timestamp;temperature;humidity
17154;DHT22;8692;52.164;7.558;2023-02-20T00:01:45;6.30;99.90
17154;DHT22;8692;52.164;7.558;2023-02-20T00:04:15;6.30;99.90
17154;DHT22;8692;52.164;7.558;2023-02-20T00:06:46;6.20;99.90
17154;DHT22;8692;52.164;7.558;2023-02-20T00:09:14;6.20;99.90
17154;DHT22;8692;52.164;7.558;2023-02-20T00:11:45;6.20;99.90
17154;DHT22;8692;52.164;7.558;2023-02-20T00:14:13;6.20;99.90
17154;DHT22;8692;52.164;7.558;2023-02-20T00:16:45;6.30;99.90
17154;DHT22;8692;52.164;7.558;2023-02-20T00:19:15;6.20;99.90
17154;DHT22;8692;52.164;7.558;2023-02-20T00:21:46;6.20;99.90
17154;DHT22;8692;52.164;7.558;2023-02-20T00:24:15;6.20;99.90
17154;DHT22;8692;52.164;7.558;2023-02-20T00:26:46;6.20;99.90
17154;DHT22;8692;52.164;7.558;2023-02-20T00:29:18;6.30;99.90
17154;DHT22;8692;52.164;7.558;2023-02-20T00:31:50;6.30;99.90
17154;DHT22;8692;52.164;7.558;2023-02-20T00:34:25;6.30;99.90
17154;DHT22;8692;52.164;7.558;2023-02-20T00:36:53;6.20;99.90
17154;DHT22;8692;52.164;7.558;2023-02-20T00:39:22;6.20;99.90
17154;DHT22;8692;52.164;7.558;2023-02-20T00:41:50;6.20;99.90
17154;DHT22;8692;52.164;7.558;2023-02-20T00:44:20;6.20;99.90
17154;DHT22;8692;52.164;7.558;2023-02-20T00:46:48;6.20;99.90
17154;DHT22;8692;52.164;7.558;2023-02-20T00:49:16;6.20;99.90
17154;DHT22;8692;52.164;7.558;2023-02-20T00:51:46;6.20;99.90
17154;DHT22;8692;52.164;7.558;2023-02-20T00:54:14;6.20;99.90
17154;DHT22;8692;52.164;7.558;2023-02-20T00:56:42;6.20;99.90
17154;DHT22;8692;52.164;7.558;2023-02-20T00:59:11;6.10;99.90
17154;DHT22;8692;52.164;7.558;2023-02-20T01:01:41;6.10;99.90
17154;DHT22;8692;52.164;7.558;2023-02-20T01:04:11;6.10;99.90
17154;DHT22;8692;52.164;7.558;2023-02-20T01:06:41;6.10;99.90
17154;DHT22;8692;52.164;7.558;2023-02-20T01:09:12;6.10;99.90
17154;DHT22;8692;52.164;7.558;2023-02-20T01:11:42;6.10;99.90
17154;DHT22;8692;52.164;7.558;2023-02-20T01:14:13;6.10;99.90
17154;DHT22;8692;52.164;7.558;2023-02-20T01:16:46;6.10;99.90
17154;DHT22;8692;52.164;7.558;2023-02-20T01:19:14;6.10;99.90
17154;DHT22;8692;52.164;7.558;2023-02-20T01:21:42;6.10;99.90
17154;DHT22;8692;52.164;7.558;2023-02-20T01:24:12;6.10;99.90
17154;DHT22;8692;52.164;7.558;2023-02-20T01:26:40;6.10;99.90
17154;DHT22;8692;52.164;7.558;2023-02-20T01:29:12;6.10;99.90
17154;DHT22;8692;52.164;7.558;2023-02-20T01:31:46;6.10;99.90
17154;DHT22;8692;52.164;7.558;2023-02-20T01:34:16;6.10;99.90
17154;DHT22;8692;52.164;7.558;2023-02-20T01:36:48;6.10;99.90
17154;DHT22;8692;52.164;7.558;2023-02-20T01:39:19;6.10;99.90
17154;DHT22;8692;52.164;7.558;2023-02-20T01:41:51;6.20;99.90
17154;DHT22;8692;52.164;7.558;2023-02-20T01:44:22;6.10;99.90
17154;DHT22;8692;52.164;7.558;2023-02-20T01:46:53;6.20;99.90
17154;DHT22;8692;52.164;7.558;2023-02-20T01:49:29;6.20;99.90
17154;DHT22;8692;52.164;7.558;2023-02-20T01:52:02;6.20;99.90
17154;DHT22;8692;52.164;7.558;2023-02-20T01:54:35;6.20;99.90
17154;DHT22;8692;52.164;7.558;2023-02-20T01:57:10;6.20;99.90
17154;DHT22;8692;52.164;7.558;2023-02-20T01:59:40;6.20;99.90
17154;DHT22;8692;52.164;7.558;2023-02-20T02:02:09;6.30;99.90
17154;DHT22;8692;52.164;7.558;2023-02-20T02:04:39;6.30;99.90
17154;DHT22;8692;52.164;7.558;2023-02-20T02:07:08;6.30;99.90
17154;DHT22;8692;52.164;7.558;2023-02-20T02:09:43;6.40;99.90
17154;DHT22;8692;52.164;7.558;2023-02-20T02:12:13;6.30;99.90
17154;DHT22;8692;52.164;7.558;2023-02-20T02:14:43;6.40;99.90
17154;DHT22;8692;52.164;7.558;2023-02-20T02:17:38;6.40;99.90
17154;DHT22;8692;52.164;7.558;2023-02-20T02:27:18;6.40;99.90
17154;DHT22;8692;52.164;7.558;2023-02-20T02:33:13;6.40;99.90
17154;DHT22;8692;52.164;7.558;2023-02-20T02:36:29;6.40;99.90
17154;DHT22;8692;52.164;7.558;2023-02-20T02:39:02;6.50;99.90
17154;DHT22;8692;52.164;7.558;2023-02-20T02:41:41;6.40;99.90
17154;DHT22;8692;52.164;7.558;2023-02-20T02:44:17;6.40;99.90
17154;DHT22;8692;52.164;7.558;2023-02-20T02:46:50;6.40;99.90
17154;DHT22;8692;52.164;7.558;2023-02-20T02:49:26;6.40;99.90
17154;DHT22;8692;52.164;7.558;2023-02-20T02:51:59;6.40;99.90
17154;DHT22;8692;52.164;7.558;2023-02-20T02:54:28;6.40;99.90
17154;DHT22;8692;52.164;7.558;2023-02-20T02:57:19;6.40;99.90
17154;DHT22;8692;52.164;7.558;2023-02-20T02:59:52;6.40;99.90
17154;DHT22;8692;52.164;7.558;2023-02-20T03:02:22;6.40;99.90
17154;DHT22;8692;52.164;7.558;2023-02-20T03:04:52;6.40;99.90
17154;DHT22;8692;52.164;7.558;2023-02-20T03:07:23;6.40;99.90
17154;DHT22;8692;52.164;7.558;2023-02-20T03:09:58;6.40;99.90
17154;DHT22;8692;52.164;7.558;2023-02-20T03:12:28;6.40;99.90
17154;DHT22;8692;52.164;7.558;2023-02-20T03:15:01;6.30;99.90
17154;DHT22;8692;52.164;7.558;2023-02-20T03:17:54;6.30;99.90
17154;DHT22;8692;52.164;7.558;2023-02-20T03:20:27;6.30;99.90
17154;DHT22;8692;52.164;7.558;2023-02-20T03:22:59;6.30;99.90
17154;DHT22;8692;52.164;7.558;2023-02-20T03:25:32;6.30;99.90
17154;DHT22;8692;52.164;7.558;2023-02-20T03:28:02;6.30;99.90
17154;DHT22;8692;52.164;7.558;2023-02-20T03:30:36;6.30;99.90
17154;DHT22;8692;52.164;7.558;2023-02-20T03:33:11;6.30;99.90
17154;DHT22;8692;52.164;7.558;2023-02-20T03:35:59;6.30;99.90
17154;DHT22;8692;52.164;7.558;2023-02-20T03:38:50;6.30;99.90
17154;DHT22;8692;52.164;7.558;2023-02-20T03:41:38;6.30;99.90
17154;DHT22;8692;52.164;7.558;2023-02-20T03:44:29;6.30;99.90
17154;DHT22;8692;52.164;7.558;2023-02-20T03:47:02;6.30;99.90
17154;DHT22;8692;52.164;7.558;2023-02-20T03:49:35;6.30;99.90
17154;DHT22;8692;52.164;7.558;2023-02-20T03:52:04;6.30;99.90
17154;DHT22;8692;52.164;7.558;2023-02-20T03:54:37;6.30;99.90
17154;DHT22;8692;52.164;7.558;2023-02-20T03:57:08;6.40;99.90
17154;DHT22;8692;52.164;7.558;2023-02-20T03:59:41;6.40;99.90
17154;DHT22;8692;52.164;7.558;2023-02-20T04:02:14;6.30;99.90
17154;DHT22;8692;52.164;7.558;2023-02-20T04:04:50;6.40;99.90
17154;DHT22;8692;52.164;7.558;2023-02-20T04:07:23;6.30;99.90
17154;DHT22;8692;52.164;7.558;2023-02-20T04:09:56;6.30;99.90
17154;DHT22;8692;52.164;7.558;2023-02-20T04:12:27;6.30;99.90
17154;DHT22;8692;52.164;7.558;2023-02-20T04:14:57;6.30;99.90
17154;DHT22;8692;52.164;7.558;2023-02-20T04:17:31;6.30;99.90
17154;DHT22;8692;52.164;7.558;2023-02-20T04:20:01;6.30;99.90
17154;DHT22;8692;52.164;7.558;2023-02-20T04:22:38;6.20;99.90
17154;DHT22;8692;52.164;7.558;2023-02-20T04:25:12;6.30;99.90
17154;DHT22;8692;52.164;7.558;2023-02-20T04:27:43;6.30;99.90
17154;DHT22;8692;52.164;7.558;2023-02-20T04:30:11;6.30;99.90
17154;DHT22;8692;52.164;7.558;2023-02-20T04:32:43;6.30;99.90
17154;DHT22;8692;52.164;7.558;2023-02-20T04:35:15;6.20;99.90
17154;DHT22;8692;52.164;7.558;2023-02-20T04:37:47;6.30;99.90
17154;DHT22;8692;52.164;7.558;2023-02-20T04:40:20;6.30;99.90
17154;DHT22;8692;52.164;7.558;2023-02-20T04:42:49;6.20;99.90
17154;DHT22;8692;52.164;7.558;2023-02-20T04:45:17;6.20;99.90
17154;DHT22;8692;52.164;7.558;2023-02-20T04:47:45;6.20;99.90
17154;DHT22;8692;52.164;7.558;2023-02-20T04:50:19;6.30;99.90
17154;DHT22;8692;52.164;7.558;2023-02-20T04:52:49;6.20;99.90
17154;DHT22;8692;52.164;7.558;2023-02-20T04:55:21;6.30;99.90
17154;DHT22;8692;52.164;7.558;2023-02-20T04:57:52;6.20;99.90
17154;DHT22;8692;52.164;7.558;2023-02-20T05:00:23;6.20;99.90
17154;DHT22;8692;52.164;7.558;2023-02-20T05:02:54;6.20;99.90
17154;DHT22;8692;52.164;7.558;2023-02-20T05:05:27;6.20;99.90
17154;DHT22;8692;52.164;7.558;2023-02-20T05:07:56;6.20;99.90
17154;DHT22;8692;52.164;7.558;2023-02-20T05:10:27;6.20;99.90
17154;DHT22;8692;52.164;7.558;2023-02-20T05:12:57;6.20;99.90
17154;DHT22;8692;52.164;7.558;2023-02-20T05:15:26;6.30;99.90
17154;DHT22;8692;52.164;7.558;2023-02-20T05:17:54;6.20;99.90
17154;DHT22;8692;52.164;7.558;2023-02-20T05:20:23;6.30;99.90
17154;DHT22;8692;52.164;7.558;2023-02-20T05:23:14;6.30;99.90
17154;DHT22;8692;52.164;7.558;2023-02-20T05:25:44;6.30;99.90
17154;DHT22;8692;52.164;7.558;2023-02-20T05:28:13;6.30;99.90
17154;DHT22;8692;52.164;7.558;2023-02-20T05:30:41;6.30;99.90
17154;DHT22;8692;52.164;7.558;2023-02-20T05:33:09;6.30;99.90
17154;DHT22;8692;52.164;7.558;2023-02-20T05:35:37;6.30;99.90
17154;DHT22;8692;52.164;7.558;2023-02-20T05:38:06;6.40;99.90
17154;DHT22;8692;52.164;7.558;2023-02-20T05:40:36;6.40;99.90
17154;DHT22;8692;52.164;7.558;2023-02-20T05:43:06;6.40;99.90
17154;DHT22;8692;52.164;7.558;2023-02-20T05:45:34;6.40;99.90
17154;DHT22;8692;52.164;7.558;2023-02-20T05:48:03;6.40;99.90
17154;DHT22;8692;52.164;7.558;2023-02-20T05:50:31;6.40;99.90
17154;DHT22;8692;52.164;7.558;2023-02-20T05:52:59;6.40;99.90
17154;DHT22;8692;52.164;7.558;2023-02-20T05:55:27;6.40;99.90
17154;DHT22;8692;52.164;7.558;2023-02-20T05:57:56;6.40;99.90
17154;DHT22;8692;52.164;7.558;2023-02-20T06:00:28;6.40;99.90
17154;DHT22;8692;52.164;7.558;2023-02-20T06:02:56;6.40;99.90
17154;DHT22;8692;52.164;7.558;2023-02-20T06:05:27;6.50;99.90
17154;DHT22;8692;52.164;7.558;2023-02-20T06:07:55;6.50;99.90
17154;DHT22;8692;52.164;7.558;2023-02-20T06:10:23;6.50;99.90
17154;DHT22;8692;52.164;7.558;2023-02-20T06:12:51;6.50;99.90
17154;DHT22;8692;52.164;7.558;2023-02-20T06:15:20;6.50;99.90
17154;DHT22;8692;52.164;7.558;2023-02-20T06:17:49;6.50;99.90
17154;DHT22;8692;52.164;7.558;2023-02-20T06:20:20;6.50;99.90
17154;DHT22;8692;52.164;7.558;2023-02-20T06:22:50;6.50;99.90
17154;DHT22;8692;52.164;7.558;2023-02-20T06:25:20;6.50;99.90
17154;DHT22;8692;52.164;7.558;2023-02-20T06:27:50;6.50;99.90
17154;DHT22;8692;52.164;7.558;2023-02-20T06:30:21;6.50;99.90
17154;DHT22;8692;52.164;7.558;2023-02-20T06:32:53;6.50;99.90
17154;DHT22;8692;52.164;7.558;2023-02-20T06:35:21;6.60;99.90
17154;DHT22;8692;52.164;7.558;2023-02-20T06:37:49;6.60;99.90
17154;DHT22;8692;52.164;7.558;2023-02-20T06:40:17;6.60;99.90
17154;DHT22;8692;52.164;7.558;2023-02-20T06:42:47;6.60;99.90
17154;DHT22;8692;52.164;7.558;2023-02-20T06:45:16;6.60;99.90
17154;DHT22;8692;52.164;7.558;2023-02-20T06:47:44;6.60;99.90
17154;DHT22;8692;52.164;7.558;2023-02-20T06:50:14;6.60;99.90
17154;DHT22;8692;52.164;7.558;2023-02-20T06:52:43;6.60;99.90
17154;DHT22;8692;52.164;7.558;2023-02-20T06:55:11;6.60;99.90
17154;DHT22;8692;52.164;7.558;2023-02-20T06:57:39;6.60;99.90
17154;DHT22;8692;52.164;7.558;2023-02-20T07:00:08;6.60;99.90
17154;DHT22;8692;52.164;7.558;2023-02-20T07:02:36;6.70;99.90
17154;DHT22;8692;52.164;7.558;2023-02-20T07:05:07;6.60;99.90
17154;DHT22;8692;52.164;7.558;2023-02-20T07:07:40;6.70;99.90
17154;DHT22;8692;52.164;7.558;2023-02-20T07:10:08;6.70;99.90
17154;DHT22;8692;52.164;7.558;2023-02-20T07:12:36;6.70;99.90
17154;DHT22;8692;52.164;7.558;2023-02-20T07:15:06;6.70;99.90
17154;DHT22;8692;52.164;7.558;2023-02-20T07:17:35;6.80;99.90
17154;DHT22;8692;52.164;7.558;2023-02-20T07:20:06;6.70;99.90
17154;DHT22;8692;52.164;7.558;2023-02-20T07:22:34;6.80;99.90
17154;DHT22;8692;52.164;7.558;2023-02-20T07:25:06;6.70;99.90
17154;DHT22;8692;52.164;7.558;2023-02-20T07:27:37;6.80;99.90
17154;DHT22;8692;52.164;7.558;2023-02-20T07:30:08;6.80;99.90
17154;DHT22;8692;52.164;7.558;2023-02-20T07:32:39;6.80;99.90
17154;DHT22;8692;52.164;7.558;2023-02-20T07:35:07;6.80;99.90
17154;DHT22;8692;52.164;7.558;2023-02-20T07:37:38;6.80;99.90
17154;DHT22;8692;52.164;7.558;2023-02-20T07:40:08;6.80;99.90
17154;DHT22;8692;52.164;7.558;2023-02-20T07:42:39;6.80;99.90
17154;DHT22;8692;52.164;7.558;2023-02-20T07:45:21;6.90;99.90
17154;DHT22;8692;52.164;7.558;2023-02-20T07:47:49;6.90;99.90
17154;DHT22;8692;52.164;7.558;2023-02-20T07:50:17;6.90;99.90
17154;DHT22;8692;52.164;7.558;2023-02-20T07:52:45;6.90;99.90
17154;DHT22;8692;52.164;7.558;2023-02-20T07:55:16;6.90;99.90
17154;DHT22;8692;52.164;7.558;2023-02-20T07:57:46;6.90;99.90
17154;DHT22;8692;52.164;7.558;2023-02-20T08:00:18;7.00;99.90
17154;DHT22;8692;52.164;7.558;2023-02-20T08:02:46;7.00;99.90
17154;DHT22;8692;52.164;7.558;2023-02-20T08:05:14;7.00;99.90
17154;DHT22;8692;52.164;7.558;2023-02-20T08:07:44;7.00;99.90
17154;DHT22;8692;52.164;7.558;2023-02-20T08:10:13;7.00;99.90
17154;DHT22;8692;52.164;7.558;2023-02-20T08:12:43;7.00;99.90
17154;DHT22;8692;52.164;7.558;2023-02-20T08:15:11;7.10;99.90
17154;DHT22;8692;52.164;7.558;2023-02-20T08:17:42;7.10;99.90
17154;DHT22;8692;52.164;7.558;2023-02-20T08:20:14;7.10;99.90
17154;DHT22;8692;52.164;7.558;2023-02-20T08:22:42;7.10;99.90
17154;DHT22;8692;52.164;7.558;2023-02-20T08:25:14;7.10;99.90
17154;DHT22;8692;52.164;7.558;2023-02-20T08:27:45;7.10;99.90
17154;DHT22;8692;52.164;7.558;2023-02-20T08:30:17;7.20;99.90
17154;DHT22;8692;52.164;7.558;2023-02-20T08:32:45;7.20;99.90
17154;DHT22;8692;52.164;7.558;2023-02-20T08:35:14;7.20;99.90
17154;DHT22;8692;52.164;7.558;2023-02-20T08:37:42;7.20;99.90
17154;DHT22;8692;52.164;7.558;2023-02-20T08:40:11;7.20;99.90
17154;DHT22;8692;52.164;7.558;2023-02-20T08:42:40;7.30;99.90
17154;DHT22;8692;52.164;7.558;2023-02-20T08:45:10;7.20;99.90
17154;DHT22;8692;52.164;7.558;2023-02-20T08:47:41;7.30;99.90
17154;DHT22;8692;52.164;7.558;2023-02-20T08:50:11;7.30;99.90
17154;DHT22;8692;52.164;7.558;2023-02-20T08:52:41;7.30;99.90
17154;DHT22;8692;52.164;7.558;2023-02-20T08:55:10;7.30;99.90
17154;DHT22;8692;52.164;7.558;2023-02-20T08:57:42;7.40;99.90
17154;DHT22;8692;52.164;7.558;2023-02-20T09:00:13;7.40;99.90
17154;DHT22;8692;52.164;7.558;2023-02-20T09:02:43;7.40;99.90
17154;DHT22;8692;52.164;7.558;2023-02-20T09:05:13;7.40;99.90
17154;DHT22;8692;52.164;7.558;2023-02-20T09:07:43;7.40;99.90
17154;DHT22;8692;52.164;7.558;2023-02-20T09:10:12;7.40;99.90
17154;DHT22;8692;52.164;7.558;2023-02-20T09:12:40;7.50;99.90
17154;DHT22;8692;52.164;7.558;2023-02-20T09:15:12;7.50;99.90
17154;DHT22;8692;52.164;7.558;2023-02-20T09:17:44;7.50;99.90
17154;DHT22;8692;52.164;7.558;2023-02-20T09:20:18;7.50;99.90
17154;DHT22;8692;52.164;7.558;2023-02-20T09:22:47;7.50;99.90
17154;DHT22;8692;52.164;7.558;2023-02-20T09:25:17;7.60;99.90
17154;DHT22;8692;52.164;7.558;2023-02-20T09:27:48;7.60;99.90
17154;DHT22;8692;52.164;7.558;2023-02-20T09:30:19;7.60;99.90
17154;DHT22;8692;52.164;7.558;2023-02-20T09:32:48;7.60;99.90
17154;DHT22;8692;52.164;7.558;2023-02-20T09:35:22;7.70;99.90
17154;DHT22;8692;52.164;7.558;2023-02-20T09:37:51;7.70;99.90
17154;DHT22;8692;52.164;7.558;2023-02-20T09:40:24;7.70;99.90
17154;DHT22;8692;52.164;7.558;2023-02-20T09:43:09;7.80;99.90
17154;DHT22;8692;52.164;7.558;2023-02-20T09:45:45;7.80;99.90
17154;DHT22;8692;52.164;7.558;2023-02-20T09:48:27;7.90;99.90
17154;DHT22;8692;52.164;7.558;2023-02-20T09:51:03;7.90;99.90
17154;DHT22;8692;52.164;7.558;2023-02-20T09:53:39;8.00;99.90
17154;DHT22;8692;52.164;7.558;2023-02-20T09:56:16;8.00;99.90
17154;DHT22;8692;52.164;7.558;2023-02-20T09:58:49;8.00;99.90
17154;DHT22;8692;52.164;7.558;2023-02-20T10:01:23;8.10;99.90
17154;DHT22;8692;52.164;7.558;2023-02-20T10:03:55;8.10;99.90
17154;DHT22;8692;52.164;7.558;2023-02-20T10:06:27;8.00;99.90
17154;DHT22;8692;52.164;7.558;2023-02-20T10:08:56;8.10;99.90
17154;DHT22;8692;52.164;7.558;2023-02-20T10:11:35;8.10;99.90
17154;DHT22;8692;52.164;7.558;2023-02-20T10:14:21;8.10;99.90
17154;DHT22;8692;52.164;7.558;2023-02-20T10:17:00;8.10;99.90
17154;DHT22;8692;52.164;7.558;2023-02-20T10:19:35;8.10;99.90
17154;DHT22;8692;52.164;7.558;2023-02-20T10:22:14;8.10;99.90
17154;DHT22;8692;52.164;7.558;2023-02-20T10:24:53;8.10;99.90
17154;DHT22;8692;52.164;7.558;2023-02-20T10:27:29;8.10;99.90
17154;DHT22;8692;52.164;7.558;2023-02-20T10:30:03;8.20;99.90
17154;DHT22;8692;52.164;7.558;2023-02-20T10:32:39;8.20;99.90
17154;DHT22;8692;52.164;7.558;2023-02-20T10:35:13;8.20;99.90
17154;DHT22;8692;52.164;7.558;2023-02-20T10:37:46;8.20;99.90
17154;DHT22;8692;52.164;7.558;2023-02-20T10:40:22;8.20;99.90
17154;DHT22;8692;52.164;7.558;2023-02-20T10:42:58;8.20;99.90
17154;DHT22;8692;52.164;7.558;2023-02-20T10:45:38;8.20;99.90
17154;DHT22;8692;52.164;7.558;2023-02-20T10:48:11;8.30;99.90
17154;DHT22;8692;52.164;7.558;2023-02-20T10:50:48;8.30;99.90
17154;DHT22;8692;52.164;7.558;2023-02-20T10:53:24;8.30;99.90
17154;DHT22;8692;52.164;7.558;2023-02-20T10:56:00;8.30;99.90
17154;DHT22;8692;52.164;7.558;2023-02-20T10:58:34;8.30;99.90
17154;DHT22;8692;52.164;7.558;2023-02-20T11:01:05;8.40;99.90
17154;DHT22;8692;52.164;7.558;2023-02-20T11:03:42;8.40;99.90
17154;DHT22;8692;52.164;7.558;2023-02-20T11:06:15;8.40;99.90
17154;DHT22;8692;52.164;7.558;2023-02-20T11:08:45;8.40;99.90
17154;DHT22;8692;52.164;7.558;2023-02-20T11:11:35;8.40;99.90
17154;DHT22;8692;52.164;7.558;2023-02-20T11:14:11;8.40;99.90
17154;DHT22;8692;52.164;7.558;2023-02-20T11:16:46;8.40;99.90
17154;DHT22;8692;52.164;7.558;2023-02-20T11:19:20;8.40;99.90
17154;DHT22;8692;52.164;7.558;2023-02-20T11:21:52;8.50;99.90
17154;DHT22;8692;52.164;7.558;2023-02-20T11:24:27;8.50;99.90
17154;DHT22;8692;52.164;7.558;2023-02-20T11:26:59;8.50;99.90
17154;DHT22;8692;52.164;7.558;2023-02-20T11:29:35;8.50;99.90
17154;DHT22;8692;52.164;7.558;2023-02-20T11:32:30;8.50;99.90
17154;DHT22;8692;52.164;7.558;2023-02-20T11:35:23;8.50;99.90
17154;DHT22;8692;52.164;7.558;2023-02-20T11:41:20;8.50;99.90
17154;DHT22;8692;52.164;7.558;2023-02-20T11:44:06;8.50;99.90
17154;DHT22;8692;52.164;7.558;2023-02-20T11:46:36;8.50;99.90
17154;DHT22;8692;52.164;7.558;2023-02-20T11:49:08;8.50;99.90
17154;DHT22;8692;52.164;7.558;2023-02-20T11:51:42;8.50;99.90
17154;DHT22;8692;52.164;7.558;2023-02-20T11:54:15;8.50;99.90
17154;DHT22;8692;52.164;7.558;2023-02-20T11:56:58;8.50;99.90
17154;DHT22;8692;52.164;7.558;2023-02-20T11:59:33;8.50;99.90
17154;DHT22;8692;52.164;7.558;2023-02-20T12:02:27;8.50;99.90
17154;DHT22;8692;52.164;7.558;2023-02-20T12:05:09;8.50;99.90
17154;DHT22;8692;52.164;7.558;2023-02-20T12:07:42;8.50;99.90
17154;DHT22;8692;52.164;7.558;2023-02-20T12:10:22;8.50;99.90
17154;DHT22;8692;52.164;7.558;2023-02-20T12:12:52;8.50;99.90
17154;DHT22;8692;52.164;7.558;2023-02-20T12:15:22;8.50;99.90
17154;DHT22;8692;52.164;7.558;2023-02-20T12:18:29;8.50;99.90
17154;DHT22;8692;52.164;7.558;2023-02-20T12:21:08;8.50;99.90
17154;DHT22;8692;52.164;7.558;2023-02-20T12:23:52;8.50;99.90
17154;DHT22;8692;52.164;7.558;2023-02-20T12:26:31;8.50;99.90
17154;DHT22;8692;52.164;7.558;2023-02-20T12:29:14;8.50;99.90
17154;DHT22;8692;52.164;7.558;2023-02-20T12:32:00;8.50;99.90
17154;DHT22;8692;52.164;7.558;2023-02-20T12:37:43;8.50;99.90
17154;DHT22;8692;52.164;7.558;2023-02-20T12:40:32;8.40;99.90
17154;DHT22;8692;52.164;7.558;2023-02-20T12:43:13;8.40;99.90
17154;DHT22;8692;52.164;7.558;2023-02-20T12:45:53;8.40;99.90
17154;DHT22;8692;52.164;7.558;2023-02-20T12:48:33;8.40;99.90
17154;DHT22;8692;52.164;7.558;2023-02-20T12:51:13;8.30;99.90
17154;DHT22;8692;52.164;7.558;2023-02-20T12:53:52;8.30;99.90
17154;DHT22;8692;52.164;7.558;2023-02-20T12:56:35;8.30;99.90
17154;DHT22;8692;52.164;7.558;2023-02-20T12:59:21;8.30;99.90
17154;DHT22;8692;52.164;7.558;2023-02-20T13:01:52;8.40;99.90
17154;DHT22;8692;52.164;7.558;2023-02-20T13:04:27;8.30;99.90
17154;DHT22;8692;52.164;7.558;2023-02-20T13:07:03;8.30;99.90
17154;DHT22;8692;52.164;7.558;2023-02-20T13:09:36;8.30;99.90
17154;DHT22;8692;52.164;7.558;2023-02-20T13:12:10;8.30;99.90
17154;DHT22;8692;52.164;7.558;2023-02-20T13:14:49;8.30;99.90
17154;DHT22;8692;52.164;7.558;2023-02-20T13:17:28;8.30;99.90
17154;DHT22;8692;52.164;7.558;2023-02-20T13:20:05;8.30;99.90
17154;DHT22;8692;52.164;7.558;2023-02-20T13:22:39;8.40;99.90
17154;DHT22;8692;52.164;7.558;2023-02-20T13:25:40;8.30;99.90
17154;DHT22;8692;52.164;7.558;2023-02-20T13:28:32;8.30;99.90
17154;DHT22;8692;52.164;7.558;2023-02-20T13:31:22;8.30;99.90
17154;DHT22;8692;52.164;7.558;2023-02-20T13:34:28;8.40;99.90
17154;DHT22;8692;52.164;7.558;2023-02-20T13:36:59;8.30;99.90
17154;DHT22;8692;52.164;7.558;2023-02-20T13:39:39;8.40;99.90
17154;DHT22;8692;52.164;7.558;2023-02-20T13:42:25;8.30;99.90
17154;DHT22;8692;52.164;7.558;2023-02-20T13:44:58;8.30;99.90
17154;DHT22;8692;52.164;7.558;2023-02-20T13:47:32;8.30;99.90
17154;DHT22;8692;52.164;7.558;2023-02-20T13:50:30;8.40;99.90
17154;DHT22;8692;52.164;7.558;2023-02-20T13:53:02;8.40;99.90
17154;DHT22;8692;52.164;7.558;2023-02-20T13:55:32;8.40;99.90
17154;DHT22;8692;52.164;7.558;2023-02-20T13:58:05;8.40;99.90
17154;DHT22;8692;52.164;7.558;2023-02-20T14:00:49;8.40;99.90
17154;DHT22;8692;52.164;7.558;2023-02-20T14:03:24;8.40;99.90
17154;DHT22;8692;52.164;7.558;2023-02-20T14:06:04;8.40;99.90
17154;DHT22;8692;52.164;7.558;2023-02-20T14:08:37;8.40;99.90
17154;DHT22;8692;52.164;7.558;2023-02-20T14:11:09;8.50;99.90
17154;DHT22;8692;52.164;7.558;2023-02-20T14:13:38;8.50;99.90
17154;DHT22;8692;52.164;7.558;2023-02-20T14:16:28;8.40;99.90
17154;DHT22;8692;52.164;7.558;2023-02-20T14:18:57;8.50;99.90
17154;DHT22;8692;52.164;7.558;2023-02-20T14:21:29;8.50;99.90
17154;DHT22;8692;52.164;7.558;2023-02-20T14:24:12;8.50;99.90
17154;DHT22;8692;52.164;7.558;2023-02-20T14:26:47;8.50;99.90
17154;DHT22;8692;52.164;7.558;2023-02-20T14:29:23;8.50;99.90
17154;DHT22;8692;52.164;7.558;2023-02-20T14:31:54;8.50;99.90
17154;DHT22;8692;52.164;7.558;2023-02-20T14:34:30;8.50;99.90
17154;DHT22;8692;52.164;7.558;2023-02-20T14:37:05;8.60;99.90
17154;DHT22;8692;52.164;7.558;2023-02-20T14:39:44;8.50;99.90
17154;DHT22;8692;52.164;7.558;2023-02-20T14:42:16;8.60;99.90
17154;DHT22;8692;52.164;7.558;2023-02-20T14:44:56;8.60;99.90
17154;DHT22;8692;52.164;7.558;2023-02-20T14:47:27;8.60;99.90
17154;DHT22;8692;52.164;7.558;2023-02-20T14:50:09;8.60;99.90
17154;DHT22;8692;52.164;7.558;2023-02-20T14:52:41;8.60;99.90
17154;DHT22;8692;52.164;7.558;2023-02-20T14:55:15;8.60;99.90
17154;DHT22;8692;52.164;7.558;2023-02-20T14:57:48;8.60;99.90
17154;DHT22;8692;52.164;7.558;2023-02-20T15:00:31;8.70;99.90
17154;DHT22;8692;52.164;7.558;2023-02-20T15:03:08;8.70;99.90
17154;DHT22;8692;52.164;7.558;2023-02-20T15:06:00;8.70;99.90
17154;DHT22;8692;52.164;7.558;2023-02-20T15:08:31;8.70;99.90
17154;DHT22;8692;52.164;7.558;2023-02-20T15:11:08;8.70;99.90
17154;DHT22;8692;52.164;7.558;2023-02-20T15:13:40;8.70;99.90
17154;DHT22;8692;52.164;7.558;2023-02-20T15:16:13;8.70;99.90
17154;DHT22;8692;52.164;7.558;2023-02-20T15:18:45;8.70;99.90
17154;DHT22;8692;52.164;7.558;2023-02-20T15:21:31;8.70;99.90
17154;DHT22;8692;52.164;7.558;2023-02-20T15:24:26;8.80;99.90
17154;DHT22;8692;52.164;7.558;2023-02-20T15:27:06;8.80;99.90
17154;DHT22;8692;52.164;7.558;2023-02-20T15:29:38;8.80;99.90
17154;DHT22;8692;52.164;7.558;2023-02-20T15:32:19;8.70;99.90
17154;DHT22;8692;52.164;7.558;2023-02-20T15:34:53;8.70;99.90
17154;DHT22;8692;52.164;7.558;2023-02-20T15:37:24;8.80;99.90
17154;DHT22;8692;52.164;7.558;2023-02-20T15:40:18;8.80;99.90
17154;DHT22;8692;52.164;7.558;2023-02-20T15:42:47;8.80;99.90
17154;DHT22;8692;52.164;7.558;2023-02-20T15:45:22;8.80;99.90
17154;DHT22;8692;52.164;7.558;2023-02-20T15:47:50;8.80;99.90
17154;DHT22;8692;52.164;7.558;2023-02-20T15:50:20;8.80;99.90
17154;DHT22;8692;52.164;7.558;2023-02-20T15:52:48;8.80;99.90
17154;DHT22;8692;52.164;7.558;2023-02-20T15:55:19;8.80;99.90
17154;DHT22;8692;52.164;7.558;2023-02-20T15:57:51;8.80;99.90
17154;DHT22;8692;52.164;7.558;2023-02-20T16:00:24;8.80;99.90
17154;DHT22;8692;52.164;7.558;2023-02-20T16:02:55;8.80;99.90
17154;DHT22;8692;52.164;7.558;2023-02-20T16:05:24;8.80;99.90
17154;DHT22;8692;52.164;7.558;2023-02-20T16:07:53;8.80;99.90
17154;DHT22;8692;52.164;7.558;2023-02-20T16:10:21;8.70;99.90
17154;DHT22;8692;52.164;7.558;2023-02-20T16:12:54;8.70;99.90
17154;DHT22;8692;52.164;7.558;2023-02-20T16:15:23;8.70;99.90
17154;DHT22;8692;52.164;7.558;2023-02-20T16:17:53;8.70;99.90
17154;DHT22;8692;52.164;7.558;2023-02-20T16:20:23;8.70;99.90
17154;DHT22;8692;52.164;7.558;2023-02-20T16:22:55;8.70;99.90
17154;DHT22;8692;52.164;7.558;2023-02-20T16:25:27;8.70;99.90
17154;DHT22;8692;52.164;7.558;2023-02-20T16:27:57;8.60;99.90
17154;DHT22;8692;52.164;7.558;2023-02-20T16:30:28;8.60;99.90
17154;DHT22;8692;52.164;7.558;2023-02-20T16:33:00;8.60;99.90
17154;DHT22;8692;52.164;7.558;2023-02-20T16:35:29;8.60;99.90
17154;DHT22;8692;52.164;7.558;2023-02-20T16:38:00;8.60;99.90
17154;DHT22;8692;52.164;7.558;2023-02-20T16:40:31;8.60;99.90
17154;DHT22;8692;52.164;7.558;2023-02-20T16:42:59;8.60;99.90
17154;DHT22;8692;52.164;7.558;2023-02-20T16:45:27;8.60;99.90
17154;DHT22;8692;52.164;7.558;2023-02-20T16:47:58;8.60;99.90
17154;DHT22;8692;52.164;7.558;2023-02-20T16:50:28;8.60;99.90
17154;DHT22;8692;52.164;7.558;2023-02-20T16:52:58;8.60;99.90
17154;DHT22;8692;52.164;7.558;2023-02-20T16:55:31;8.60;99.90
17154;DHT22;8692;52.164;7.558;2023-02-20T16:58:02;8.60;99.90
17154;DHT22;8692;52.164;7.558;2023-02-20T17:00:32;8.60;99.90